sensor_id;sensor_type;location;lat;lon;timestamp;P1;durP1;ratioP1;P2;durP2;ratioP2
73359;SDS011;63092;43.582;19.528;2024-02-14T00:00:18;23.25;;;13.30;;
73359;SDS011;63092;43.582;19.528;2024-02-14T00:02:46;18.38;;;10.10;;
73359;SDS011;63092;43.582;19.528;2024-02-14T00:05:15;29.27;;;11.70;;
73359;SDS011;63092;43.582;19.528;2024-02-14T00:07:41;19.80;;;10.77;;
73359;SDS011;63092;43.582;19.528;2024-02-14T00:10:07;17.25;;;9.38;;
73359;SDS011;63092;43.582;19.528;2024-02-14T00:12:33;30.75;;;15.45;;
73359;SDS011;63092;43.582;19.528;2024-02-14T00:15:00;23.33;;;10.82;;
73359;SDS011;63092;43.582;19.528;2024-02-14T00:17:31;50.92;;;24.80;;
73359;SDS011;63092;43.582;19.528;2024-02-14T00:19:58;33.70;;;18.83;;
73359;SDS011;63092;43.582;19.528;2024-02-14T00:22:24;27.58;;;15.73;;
73359;SDS011;63092;43.582;19.528;2024-02-14T00:24:50;23.20;;;12.38;;
73359;SDS011;63092;43.582;19.528;2024-02-14T00:27:16;23.35;;;13.32;;
73359;SDS011;63092;43.582;19.528;2024-02-14T00:29:42;24.20;;;14.10;;
73359;SDS011;63092;43.582;19.528;2024-02-14T00:32:10;23.15;;;11.02;;
73359;SDS011;63092;43.582;19.528;2024-02-14T00:34:37;22.10;;;11.05;;
73359;SDS011;63092;43.582;19.528;2024-02-14T00:37:02;21.92;;;10.93;;
73359;SDS011;63092;43.582;19.528;2024-02-14T00:39:28;17.10;;;9.90;;
73359;SDS011;63092;43.582;19.528;2024-02-14T00:41:54;34.30;;;19.17;;
73359;SDS011;63092;43.582;19.528;2024-02-14T00:44:21;20.65;;;10.38;;
73359;SDS011;63092;43.582;19.528;2024-02-14T00:46:47;23.30;;;12.77;;
73359;SDS011;63092;43.582;19.528;2024-02-14T00:49:13;19.10;;;10.52;;
73359;SDS011;63092;43.582;19.528;2024-02-14T00:51:39;18.35;;;9.25;;
73359;SDS011;63092;43.582;19.528;2024-02-14T00:54:05;20.08;;;9.77;;
73359;SDS011;63092;43.582;19.528;2024-02-14T00:56:32;19.50;;;9.25;;
73359;SDS011;63092;43.582;19.528;2024-02-14T00:58:58;23.80;;;11.63;;
73359;SDS011;63092;43.582;19.528;2024-02-14T01:01:23;28.65;;;15.70;;
73359;SDS011;63092;43.582;19.528;2024-02-14T01:03:50;22.45;;;12.15;;
73359;SDS011;63092;43.582;19.528;2024-02-14T01:06:16;15.85;;;8.93;;
73359;SDS011;63092;43.582;19.528;2024-02-14T01:08:43;17.02;;;8.60;;
73359;SDS011;63092;43.582;19.528;2024-02-14T01:11:09;14.25;;;7.85;;
73359;SDS011;63092;43.582;19.528;2024-02-14T01:13:35;13.98;;;8.40;;
73359;SDS011;63092;43.582;19.528;2024-02-14T01:16:02;16.38;;;8.60;;
73359;SDS011;63092;43.582;19.528;2024-02-14T01:18:29;13.82;;;7.93;;
73359;SDS011;63092;43.582;19.528;2024-02-14T01:20:55;13.18;;;7.30;;
73359;SDS011;63092;43.582;19.528;2024-02-14T01:23:20;12.35;;;7.25;;
73359;SDS011;63092;43.582;19.528;2024-02-14T01:25:46;13.40;;;6.95;;
73359;SDS011;63092;43.582;19.528;2024-02-14T01:28:12;13.18;;;7.63;;
73359;SDS011;63092;43.582;19.528;2024-02-14T01:30:37;11.85;;;6.55;;
73359;SDS011;63092;43.582;19.528;2024-02-14T01:33:03;37.40;;;13.23;;
73359;SDS011;63092;43.582;19.528;2024-02-14T01:35:30;38.95;;;18.15;;
73359;SDS011;63092;43.582;19.528;2024-02-14T01:37:55;31.02;;;14.27;;
73359;SDS011;63092;43.582;19.528;2024-02-14T01:40:22;13.93;;;8.23;;
73359;SDS011;63092;43.582;19.528;2024-02-14T01:42:48;14.90;;;7.55;;
73359;SDS011;63092;43.582;19.528;2024-02-14T01:45:14;15.27;;;7.93;;
73359;SDS011;63092;43.582;19.528;2024-02-14T01:47:40;11.45;;;6.95;;
73359;SDS011;63092;43.582;19.528;2024-02-14T01:50:06;9.13;;;6.28;;
73359;SDS011;63092;43.582;19.528;2024-02-14T01:52:36;11.30;;;6.90;;
73359;SDS011;63092;43.582;19.528;2024-02-14T01:55:06;14.38;;;8.05;;
73359;SDS011;63092;43.582;19.528;2024-02-14T01:57:33;11.18;;;6.55;;
73359;SDS011;63092;43.582;19.528;2024-02-14T02:00:01;10.60;;;6.43;;
73359;SDS011;63092;43.582;19.528;2024-02-14T02:02:40;16.70;;;9.05;;
73359;SDS011;63092;43.582;19.528;2024-02-14T02:05:06;14.05;;;8.23;;
73359;SDS011;63092;43.582;19.528;2024-02-14T02:07:32;13.13;;;8.02;;
73359;SDS011;63092;43.582;19.528;2024-02-14T02:09:58;15.82;;;9.23;;
73359;SDS011;63092;43.582;19.528;2024-02-14T02:12:24;15.40;;;9.23;;
73359;SDS011;63092;43.582;19.528;2024-02-14T02:14:52;13.95;;;10.02;;
73359;SDS011;63092;43.582;19.528;2024-02-14T02:17:18;14.27;;;7.32;;
73359;SDS011;63092;43.582;19.528;2024-02-14T02:19:44;13.48;;;8.07;;
73359;SDS011;63092;43.582;19.528;2024-02-14T02:22:10;14.32;;;8.45;;
73359;SDS011;63092;43.582;19.528;2024-02-14T02:24:35;11.20;;;6.85;;
73359;SDS011;63092;43.582;19.528;2024-02-14T02:27:02;14.35;;;8.02;;
73359;SDS011;63092;43.582;19.528;2024-02-14T02:29:28;12.32;;;7.20;;
73359;SDS011;63092;43.582;19.528;2024-02-14T02:31:54;12.80;;;7.50;;
73359;SDS011;63092;43.582;19.528;2024-02-14T02:34:20;13.70;;;7.28;;
73359;SDS011;63092;43.582;19.528;2024-02-14T02:36:46;13.38;;;8.00;;
73359;SDS011;63092;43.582;19.528;2024-02-14T02:39:15;9.82;;;6.07;;
73359;SDS011;63092;43.582;19.528;2024-02-14T02:41:41;11.52;;;6.25;;
73359;SDS011;63092;43.582;19.528;2024-02-14T02:44:07;10.77;;;6.10;;
73359;SDS011;63092;43.582;19.528;2024-02-14T02:46:32;9.95;;;6.20;;
73359;SDS011;63092;43.582;19.528;2024-02-14T02:48:58;13.77;;;7.82;;
73359;SDS011;63092;43.582;19.528;2024-02-14T02:51:24;10.13;;;6.57;;
73359;SDS011;63092;43.582;19.528;2024-02-14T02:53:50;10.63;;;6.93;;
73359;SDS011;63092;43.582;19.528;2024-02-14T02:56:19;11.40;;;7.03;;
73359;SDS011;63092;43.582;19.528;2024-02-14T02:58:47;12.43;;;7.25;;
73359;SDS011;63092;43.582;19.528;2024-02-14T03:01:13;12.82;;;6.22;;
73359;SDS011;63092;43.582;19.528;2024-02-14T03:03:39;10.75;;;6.72;;
73359;SDS011;63092;43.582;19.528;2024-02-14T03:06:06;9.85;;;5.97;;
73359;SDS011;63092;43.582;19.528;2024-02-14T03:08:32;11.95;;;7.00;;
73359;SDS011;63092;43.582;19.528;2024-02-14T03:11:03;10.93;;;6.70;;
73359;SDS011;63092;43.582;19.528;2024-02-14T03:13:30;9.75;;;6.50;;
73359;SDS011;63092;43.582;19.528;2024-02-14T03:15:57;11.68;;;7.00;;
73359;SDS011;63092;43.582;19.528;2024-02-14T03:18:24;10.50;;;7.35;;
73359;SDS011;63092;43.582;19.528;2024-02-14T03:20:50;11.00;;;6.93;;
73359;SDS011;63092;43.582;19.528;2024-02-14T03:23:16;14.05;;;8.25;;
73359;SDS011;63092;43.582;19.528;2024-02-14T03:25:41;17.33;;;10.27;;
73359;SDS011;63092;43.582;19.528;2024-02-14T03:28:07;12.45;;;7.45;;
73359;SDS011;63092;43.582;19.528;2024-02-14T03:30:34;11.98;;;8.00;;
73359;SDS011;63092;43.582;19.528;2024-02-14T03:33:01;13.52;;;8.85;;
73359;SDS011;63092;43.582;19.528;2024-02-14T03:35:28;16.63;;;10.82;;
73359;SDS011;63092;43.582;19.528;2024-02-14T03:37:53;18.15;;;10.00;;
73359;SDS011;63092;43.582;19.528;2024-02-14T03:40:19;15.43;;;9.57;;
73359;SDS011;63092;43.582;19.528;2024-02-14T03:45:14;13.68;;;8.93;;
73359;SDS011;63092;43.582;19.528;2024-02-14T03:47:40;13.52;;;8.80;;
73359;SDS011;63092;43.582;19.528;2024-02-14T03:50:07;14.60;;;8.57;;
73359;SDS011;63092;43.582;19.528;2024-02-14T03:52:33;16.35;;;9.52;;
73359;SDS011;63092;43.582;19.528;2024-02-14T03:54:59;17.30;;;9.32;;
73359;SDS011;63092;43.582;19.528;2024-02-14T03:57:26;16.55;;;9.43;;
73359;SDS011;63092;43.582;19.528;2024-02-14T03:59:55;20.42;;;10.82;;
73359;SDS011;63092;43.582;19.528;2024-02-14T04:02:21;21.80;;;12.93;;
73359;SDS011;63092;43.582;19.528;2024-02-14T04:04:48;25.38;;;13.30;;
73359;SDS011;63092;43.582;19.528;2024-02-14T04:07:14;22.15;;;12.90;;
73359;SDS011;63092;43.582;19.528;2024-02-14T04:09:40;21.48;;;12.23;;
73359;SDS011;63092;43.582;19.528;2024-02-14T04:12:06;39.08;;;18.95;;
73359;SDS011;63092;43.582;19.528;2024-02-14T04:14:32;147.73;;;43.88;;
73359;SDS011;63092;43.582;19.528;2024-02-14T04:16:58;48.92;;;21.25;;
73359;SDS011;63092;43.582;19.528;2024-02-14T04:19:23;30.17;;;14.88;;
73359;SDS011;63092;43.582;19.528;2024-02-14T04:21:49;22.15;;;12.27;;
73359;SDS011;63092;43.582;19.528;2024-02-14T04:24:15;19.15;;;10.35;;
73359;SDS011;63092;43.582;19.528;2024-02-14T04:26:41;19.02;;;10.05;;
73359;SDS011;63092;43.582;19.528;2024-02-14T04:29:07;20.60;;;10.82;;
73359;SDS011;63092;43.582;19.528;2024-02-14T04:31:33;17.30;;;9.93;;
73359;SDS011;63092;43.582;19.528;2024-02-14T04:33:59;23.80;;;11.98;;
73359;SDS011;63092;43.582;19.528;2024-02-14T04:36:25;17.73;;;10.18;;
73359;SDS011;63092;43.582;19.528;2024-02-14T04:38:52;17.27;;;10.25;;
73359;SDS011;63092;43.582;19.528;2024-02-14T04:41:18;19.02;;;10.10;;
73359;SDS011;63092;43.582;19.528;2024-02-14T04:43:44;17.23;;;10.05;;
73359;SDS011;63092;43.582;19.528;2024-02-14T04:46:10;16.83;;;9.23;;
73359;SDS011;63092;43.582;19.528;2024-02-14T04:48:36;15.35;;;9.65;;
73359;SDS011;63092;43.582;19.528;2024-02-14T04:51:02;13.55;;;7.88;;
73359;SDS011;63092;43.582;19.528;2024-02-14T04:53:30;12.50;;;6.97;;
73359;SDS011;63092;43.582;19.528;2024-02-14T04:55:56;11.35;;;6.68;;
73359;SDS011;63092;43.582;19.528;2024-02-14T04:58:22;11.07;;;7.00;;
73359;SDS011;63092;43.582;19.528;2024-02-14T05:00:48;21.25;;;13.38;;
73359;SDS011;63092;43.582;19.528;2024-02-14T05:03:14;18.00;;;11.27;;
73359;SDS011;63092;43.582;19.528;2024-02-14T05:05:41;20.13;;;12.07;;
73359;SDS011;63092;43.582;19.528;2024-02-14T05:08:07;14.82;;;10.40;;
73359;SDS011;63092;43.582;19.528;2024-02-14T05:10:32;14.75;;;9.60;;
73359;SDS011;63092;43.582;19.528;2024-02-14T05:12:58;15.10;;;9.27;;
73359;SDS011;63092;43.582;19.528;2024-02-14T05:15:24;14.48;;;8.98;;
73359;SDS011;63092;43.582;19.528;2024-02-14T05:17:50;16.27;;;9.20;;
73359;SDS011;63092;43.582;19.528;2024-02-14T05:20:17;13.15;;;8.60;;
73359;SDS011;63092;43.582;19.528;2024-02-14T05:22:43;14.60;;;8.80;;
73359;SDS011;63092;43.582;19.528;2024-02-14T05:25:09;15.93;;;9.05;;
73359;SDS011;63092;43.582;19.528;2024-02-14T05:27:35;12.82;;;7.82;;
73359;SDS011;63092;43.582;19.528;2024-02-14T05:30:02;11.25;;;7.20;;
73359;SDS011;63092;43.582;19.528;2024-02-14T05:32:32;11.05;;;7.25;;
73359;SDS011;63092;43.582;19.528;2024-02-14T05:34:58;13.45;;;7.85;;
73359;SDS011;63092;43.582;19.528;2024-02-14T05:37:24;12.23;;;7.22;;
73359;SDS011;63092;43.582;19.528;2024-02-14T05:39:52;15.10;;;9.68;;
73359;SDS011;63092;43.582;19.528;2024-02-14T05:42:18;21.02;;;11.25;;
73359;SDS011;63092;43.582;19.528;2024-02-14T05:44:44;28.02;;;16.52;;
73359;SDS011;63092;43.582;19.528;2024-02-14T05:47:10;25.45;;;15.38;;
73359;SDS011;63092;43.582;19.528;2024-02-14T05:49:38;24.17;;;14.35;;
73359;SDS011;63092;43.582;19.528;2024-02-14T05:52:05;25.77;;;14.65;;
73359;SDS011;63092;43.582;19.528;2024-02-14T05:54:31;46.05;;;22.90;;
73359;SDS011;63092;43.582;19.528;2024-02-14T05:56:57;22.15;;;13.85;;
73359;SDS011;63092;43.582;19.528;2024-02-14T05:59:23;41.13;;;18.50;;
73359;SDS011;63092;43.582;19.528;2024-02-14T06:01:48;30.50;;;18.30;;
73359;SDS011;63092;43.582;19.528;2024-02-14T06:04:14;29.10;;;16.77;;
73359;SDS011;63092;43.582;19.528;2024-02-14T06:06:40;24.52;;;15.07;;
73359;SDS011;63092;43.582;19.528;2024-02-14T06:09:06;149.05;;;53.45;;
73359;SDS011;63092;43.582;19.528;2024-02-14T06:11:35;121.40;;;51.47;;
73359;SDS011;63092;43.582;19.528;2024-02-14T06:14:04;42.47;;;20.45;;
73359;SDS011;63092;43.582;19.528;2024-02-14T06:16:30;33.45;;;18.40;;
73359;SDS011;63092;43.582;19.528;2024-02-14T06:18:57;47.80;;;23.80;;
73359;SDS011;63092;43.582;19.528;2024-02-14T06:21:22;54.97;;;28.70;;
73359;SDS011;63092;43.582;19.528;2024-02-14T06:23:48;25.58;;;15.40;;
73359;SDS011;63092;43.582;19.528;2024-02-14T06:26:14;35.40;;;18.98;;
73359;SDS011;63092;43.582;19.528;2024-02-14T06:28:40;30.35;;;16.90;;
73359;SDS011;63092;43.582;19.528;2024-02-14T06:31:05;36.90;;;19.02;;
73359;SDS011;63092;43.582;19.528;2024-02-14T06:33:31;38.75;;;22.55;;
73359;SDS011;63092;43.582;19.528;2024-02-14T06:35:57;36.60;;;20.13;;
73359;SDS011;63092;43.582;19.528;2024-02-14T06:38:22;40.45;;;20.40;;
73359;SDS011;63092;43.582;19.528;2024-02-14T06:40:48;40.97;;;20.10;;
73359;SDS011;63092;43.582;19.528;2024-02-14T06:43:14;48.13;;;23.15;;
73359;SDS011;63092;43.582;19.528;2024-02-14T06:45:40;40.33;;;22.05;;
73359;SDS011;63092;43.582;19.528;2024-02-14T06:48:07;29.83;;;17.75;;
73359;SDS011;63092;43.582;19.528;2024-02-14T06:50:33;35.28;;;20.48;;
73359;SDS011;63092;43.582;19.528;2024-02-14T06:52:59;26.60;;;14.02;;
73359;SDS011;63092;43.582;19.528;2024-02-14T06:55:28;22.70;;;14.25;;
73359;SDS011;63092;43.582;19.528;2024-02-14T06:58:01;21.23;;;12.50;;
73359;SDS011;63092;43.582;19.528;2024-02-14T07:00:26;28.48;;;16.35;;
73359;SDS011;63092;43.582;19.528;2024-02-14T07:02:55;37.63;;;20.73;;
73359;SDS011;63092;43.582;19.528;2024-02-14T07:05:21;170.77;;;68.28;;
73359;SDS011;63092;43.582;19.528;2024-02-14T07:07:46;33.60;;;20.08;;
73359;SDS011;63092;43.582;19.528;2024-02-14T07:10:12;140.75;;;59.95;;
73359;SDS011;63092;43.582;19.528;2024-02-14T07:12:38;38.38;;;21.35;;
73359;SDS011;63092;43.582;19.528;2024-02-14T07:15:04;46.90;;;24.00;;
73359;SDS011;63092;43.582;19.528;2024-02-14T07:17:30;47.50;;;28.10;;
73359;SDS011;63092;43.582;19.528;2024-02-14T07:19:56;50.67;;;26.50;;
73359;SDS011;63092;43.582;19.528;2024-02-14T07:22:22;51.30;;;28.70;;
73359;SDS011;63092;43.582;19.528;2024-02-14T07:24:48;44.10;;;26.08;;
73359;SDS011;63092;43.582;19.528;2024-02-14T07:27:14;21.27;;;14.13;;
73359;SDS011;63092;43.582;19.528;2024-02-14T07:29:41;21.88;;;13.13;;
73359;SDS011;63092;43.582;19.528;2024-02-14T07:32:07;19.70;;;12.00;;
73359;SDS011;63092;43.582;19.528;2024-02-14T07:34:33;18.92;;;11.90;;
73359;SDS011;63092;43.582;19.528;2024-02-14T07:36:58;32.58;;;19.10;;
73359;SDS011;63092;43.582;19.528;2024-02-14T07:39:24;31.65;;;18.30;;
73359;SDS011;63092;43.582;19.528;2024-02-14T07:41:50;29.98;;;17.73;;
73359;SDS011;63092;43.582;19.528;2024-02-14T07:44:16;32.05;;;20.33;;
73359;SDS011;63092;43.582;19.528;2024-02-14T07:46:42;30.30;;;18.30;;
73359;SDS011;63092;43.582;19.528;2024-02-14T07:49:08;29.02;;;18.98;;
73359;SDS011;63092;43.582;19.528;2024-02-14T07:51:35;29.75;;;18.65;;
73359;SDS011;63092;43.582;19.528;2024-02-14T07:54:04;30.30;;;18.88;;
73359;SDS011;63092;43.582;19.528;2024-02-14T07:56:30;33.13;;;20.08;;
73359;SDS011;63092;43.582;19.528;2024-02-14T07:58:57;32.70;;;19.15;;
73359;SDS011;63092;43.582;19.528;2024-02-14T08:01:23;39.92;;;23.15;;
73359;SDS011;63092;43.582;19.528;2024-02-14T08:03:48;44.13;;;23.90;;
73359;SDS011;63092;43.582;19.528;2024-02-14T08:06:14;68.97;;;37.90;;
73359;SDS011;63092;43.582;19.528;2024-02-14T08:08:40;40.50;;;25.90;;
73359;SDS011;63092;43.582;19.528;2024-02-14T08:11:06;31.73;;;19.55;;
73359;SDS011;63092;43.582;19.528;2024-02-14T08:13:32;24.10;;;15.48;;
73359;SDS011;63092;43.582;19.528;2024-02-14T08:15:59;29.13;;;18.08;;
73359;SDS011;63092;43.582;19.528;2024-02-14T08:18:25;24.45;;;13.98;;
73359;SDS011;63092;43.582;19.528;2024-02-14T08:20:52;26.75;;;17.15;;
73359;SDS011;63092;43.582;19.528;2024-02-14T08:23:18;23.55;;;14.50;;
73359;SDS011;63092;43.582;19.528;2024-02-14T08:25:45;29.35;;;17.52;;
73359;SDS011;63092;43.582;19.528;2024-02-14T08:28:11;28.92;;;16.88;;
73359;SDS011;63092;43.582;19.528;2024-02-14T08:30:37;22.00;;;12.30;;
73359;SDS011;63092;43.582;19.528;2024-02-14T08:33:03;18.90;;;10.57;;
73359;SDS011;63092;43.582;19.528;2024-02-14T08:35:29;12.98;;;7.75;;
73359;SDS011;63092;43.582;19.528;2024-02-14T08:37:55;17.15;;;8.43;;
73359;SDS011;63092;43.582;19.528;2024-02-14T08:40:21;18.05;;;9.38;;
73359;SDS011;63092;43.582;19.528;2024-02-14T08:42:46;15.13;;;7.85;;
73359;SDS011;63092;43.582;19.528;2024-02-14T08:45:12;15.15;;;7.97;;
73359;SDS011;63092;43.582;19.528;2024-02-14T08:47:38;17.50;;;10.00;;
73359;SDS011;63092;43.582;19.528;2024-02-14T08:50:04;15.60;;;9.38;;
73359;SDS011;63092;43.582;19.528;2024-02-14T08:52:30;19.02;;;9.07;;
73359;SDS011;63092;43.582;19.528;2024-02-14T08:54:57;26.95;;;12.80;;
73359;SDS011;63092;43.582;19.528;2024-02-14T08:57:23;30.40;;;15.68;;
73359;SDS011;63092;43.582;19.528;2024-02-14T08:59:49;23.85;;;13.07;;
73359;SDS011;63092;43.582;19.528;2024-02-14T09:02:15;18.17;;;10.38;;
73359;SDS011;63092;43.582;19.528;2024-02-14T09:04:42;14.45;;;8.45;;
73359;SDS011;63092;43.582;19.528;2024-02-14T09:07:08;60.42;;;30.85;;
73359;SDS011;63092;43.582;19.528;2024-02-14T09:09:34;13.20;;;8.82;;
73359;SDS011;63092;43.582;19.528;2024-02-14T09:12:01;8.85;;;5.20;;
73359;SDS011;63092;43.582;19.528;2024-02-14T09:14:30;8.05;;;4.65;;
73359;SDS011;63092;43.582;19.528;2024-02-14T09:16:56;8.77;;;4.80;;
73359;SDS011;63092;43.582;19.528;2024-02-14T09:19:23;8.90;;;4.88;;
73359;SDS011;63092;43.582;19.528;2024-02-14T09:21:50;6.00;;;3.78;;
73359;SDS011;63092;43.582;19.528;2024-02-14T09:24:16;8.20;;;5.10;;
73359;SDS011;63092;43.582;19.528;2024-02-14T09:26:42;6.07;;;3.78;;
73359;SDS011;63092;43.582;19.528;2024-02-14T09:29:08;9.07;;;4.80;;
73359;SDS011;63092;43.582;19.528;2024-02-14T09:31:36;7.10;;;4.40;;
73359;SDS011;63092;43.582;19.528;2024-02-14T09:34:02;22.17;;;11.40;;
73359;SDS011;63092;43.582;19.528;2024-02-14T09:36:28;16.35;;;9.05;;
73359;SDS011;63092;43.582;19.528;2024-02-14T09:38:54;12.52;;;7.57;;
73359;SDS011;63092;43.582;19.528;2024-02-14T09:44:01;8.35;;;5.30;;
73359;SDS011;63092;43.582;19.528;2024-02-14T09:46:28;10.27;;;4.63;;
73359;SDS011;63092;43.582;19.528;2024-02-14T09:48:55;8.38;;;3.63;;
73359;SDS011;63092;43.582;19.528;2024-02-14T09:51:25;8.90;;;4.45;;
73359;SDS011;63092;43.582;19.528;2024-02-14T09:53:51;6.00;;;3.85;;
73359;SDS011;63092;43.582;19.528;2024-02-14T09:56:19;7.67;;;4.40;;
73359;SDS011;63092;43.582;19.528;2024-02-14T09:58:47;8.82;;;5.40;;
73359;SDS011;63092;43.582;19.528;2024-02-14T10:01:20;13.90;;;8.20;;
73359;SDS011;63092;43.582;19.528;2024-02-14T10:03:49;12.50;;;6.72;;
73359;SDS011;63092;43.582;19.528;2024-02-14T10:06:15;8.98;;;5.20;;
73359;SDS011;63092;43.582;19.528;2024-02-14T10:08:42;8.63;;;5.75;;
73359;SDS011;63092;43.582;19.528;2024-02-14T10:11:08;8.48;;;5.32;;
73359;SDS011;63092;43.582;19.528;2024-02-14T10:13:35;10.93;;;6.68;;
73359;SDS011;63092;43.582;19.528;2024-02-14T10:16:01;9.75;;;6.25;;
73359;SDS011;63092;43.582;19.528;2024-02-14T10:18:28;6.28;;;4.53;;
73359;SDS011;63092;43.582;19.528;2024-02-14T10:20:57;7.28;;;4.43;;
73359;SDS011;63092;43.582;19.528;2024-02-14T10:23:23;6.22;;;3.40;;
73359;SDS011;63092;43.582;19.528;2024-02-14T10:25:50;6.07;;;3.47;;
73359;SDS011;63092;43.582;19.528;2024-02-14T10:28:18;5.60;;;3.33;;
73359;SDS011;63092;43.582;19.528;2024-02-14T10:30:47;5.78;;;3.50;;
73359;SDS011;63092;43.582;19.528;2024-02-14T10:33:14;5.72;;;3.47;;
73359;SDS011;63092;43.582;19.528;2024-02-14T10:35:46;27.63;;;12.05;;
73359;SDS011;63092;43.582;19.528;2024-02-14T10:38:14;19.90;;;9.38;;
73359;SDS011;63092;43.582;19.528;2024-02-14T10:40:43;23.80;;;11.18;;
73359;SDS011;63092;43.582;19.528;2024-02-14T10:43:12;9.73;;;4.90;;
73359;SDS011;63092;43.582;19.528;2024-02-14T10:45:38;10.38;;;6.07;;
73359;SDS011;63092;43.582;19.528;2024-02-14T10:48:04;8.15;;;3.60;;
73359;SDS011;63092;43.582;19.528;2024-02-14T10:50:32;15.95;;;8.45;;
73359;SDS011;63092;43.582;19.528;2024-02-14T10:53:00;14.02;;;7.20;;
73359;SDS011;63092;43.582;19.528;2024-02-14T10:55:30;9.38;;;5.30;;
73359;SDS011;63092;43.582;19.528;2024-02-14T10:57:58;10.90;;;5.72;;
73359;SDS011;63092;43.582;19.528;2024-02-14T11:00:24;12.48;;;7.38;;
73359;SDS011;63092;43.582;19.528;2024-02-14T11:02:50;6.57;;;3.92;;
73359;SDS011;63092;43.582;19.528;2024-02-14T11:05:18;5.82;;;3.72;;
73359;SDS011;63092;43.582;19.528;2024-02-14T11:07:47;7.43;;;3.63;;
73359;SDS011;63092;43.582;19.528;2024-02-14T11:10:15;6.13;;;3.92;;
73359;SDS011;63092;43.582;19.528;2024-02-14T11:12:42;8.35;;;4.57;;
73359;SDS011;63092;43.582;19.528;2024-02-14T11:15:19;6.57;;;3.28;;
73359;SDS011;63092;43.582;19.528;2024-02-14T11:17:46;5.30;;;3.15;;
73359;SDS011;63092;43.582;19.528;2024-02-14T11:20:20;7.43;;;4.55;;
73359;SDS011;63092;43.582;19.528;2024-02-14T11:23:02;6.82;;;4.45;;
73359;SDS011;63092;43.582;19.528;2024-02-14T11:25:36;7.43;;;4.28;;
73359;SDS011;63092;43.582;19.528;2024-02-14T11:28:23;5.30;;;3.20;;
73359;SDS011;63092;43.582;19.528;2024-02-14T11:30:51;5.57;;;3.03;;
73359;SDS011;63092;43.582;19.528;2024-02-14T11:33:20;6.15;;;3.85;;
73359;SDS011;63092;43.582;19.528;2024-02-14T11:35:50;7.88;;;4.13;;
73359;SDS011;63092;43.582;19.528;2024-02-14T11:38:18;7.60;;;4.57;;
73359;SDS011;63092;43.582;19.528;2024-02-14T11:40:45;15.13;;;10.30;;
73359;SDS011;63092;43.582;19.528;2024-02-14T11:43:20;22.02;;;12.57;;
73359;SDS011;63092;43.582;19.528;2024-02-14T11:45:46;6.60;;;4.55;;
73359;SDS011;63092;43.582;19.528;2024-02-14T11:48:15;6.30;;;3.70;;
73359;SDS011;63092;43.582;19.528;2024-02-14T11:50:51;18.48;;;10.32;;
73359;SDS011;63092;43.582;19.528;2024-02-14T11:53:18;9.90;;;6.65;;
73359;SDS011;63092;43.582;19.528;2024-02-14T11:55:45;5.15;;;3.00;;
73359;SDS011;63092;43.582;19.528;2024-02-14T11:58:14;8.07;;;4.75;;
73359;SDS011;63092;43.582;19.528;2024-02-14T12:00:42;8.85;;;5.00;;
73359;SDS011;63092;43.582;19.528;2024-02-14T12:03:13;7.05;;;3.20;;
73359;SDS011;63092;43.582;19.528;2024-02-14T12:05:46;9.07;;;5.32;;
73359;SDS011;63092;43.582;19.528;2024-02-14T12:08:13;6.75;;;3.58;;
73359;SDS011;63092;43.582;19.528;2024-02-14T12:10:42;8.70;;;4.13;;
73359;SDS011;63092;43.582;19.528;2024-02-14T12:13:08;6.63;;;3.15;;
73359;SDS011;63092;43.582;19.528;2024-02-14T12:15:41;9.40;;;4.63;;
73359;SDS011;63092;43.582;19.528;2024-02-14T12:18:10;4.93;;;3.22;;
73359;SDS011;63092;43.582;19.528;2024-02-14T12:20:40;6.47;;;4.03;;
73359;SDS011;63092;43.582;19.528;2024-02-14T12:23:07;4.93;;;2.97;;
73359;SDS011;63092;43.582;19.528;2024-02-14T12:25:39;5.85;;;3.25;;
73359;SDS011;63092;43.582;19.528;2024-02-14T12:28:05;5.05;;;2.40;;
73359;SDS011;63092;43.582;19.528;2024-02-14T12:33:21;7.75;;;4.60;;
73359;SDS011;63092;43.582;19.528;2024-02-14T12:35:48;12.23;;;5.40;;
73359;SDS011;63092;43.582;19.528;2024-02-14T12:38:16;8.23;;;4.20;;
73359;SDS011;63092;43.582;19.528;2024-02-14T12:40:42;5.47;;;2.60;;
73359;SDS011;63092;43.582;19.528;2024-02-14T12:43:12;5.65;;;3.20;;
73359;SDS011;63092;43.582;19.528;2024-02-14T12:45:39;8.50;;;4.60;;
73359;SDS011;63092;43.582;19.528;2024-02-14T12:48:05;5.88;;;3.70;;
73359;SDS011;63092;43.582;19.528;2024-02-14T12:50:35;5.05;;;3.03;;
73359;SDS011;63092;43.582;19.528;2024-02-14T12:53:05;7.45;;;4.15;;
73359;SDS011;63092;43.582;19.528;2024-02-14T12:55:32;6.90;;;3.55;;
73359;SDS011;63092;43.582;19.528;2024-02-14T12:57:58;6.43;;;4.32;;
73359;SDS011;63092;43.582;19.528;2024-02-14T13:00:24;5.28;;;3.28;;
73359;SDS011;63092;43.582;19.528;2024-02-14T13:02:51;5.75;;;3.38;;
73359;SDS011;63092;43.582;19.528;2024-02-14T13:05:18;5.25;;;3.05;;
73359;SDS011;63092;43.582;19.528;2024-02-14T13:07:44;6.03;;;2.42;;
73359;SDS011;63092;43.582;19.528;2024-02-14T13:10:12;6.05;;;3.38;;
73359;SDS011;63092;43.582;19.528;2024-02-14T13:12:38;6.85;;;3.63;;
73359;SDS011;63092;43.582;19.528;2024-02-14T13:15:04;11.43;;;4.78;;
73359;SDS011;63092;43.582;19.528;2024-02-14T13:17:31;10.75;;;5.45;;
73359;SDS011;63092;43.582;19.528;2024-02-14T13:19:56;11.25;;;5.50;;
73359;SDS011;63092;43.582;19.528;2024-02-14T13:22:24;8.40;;;4.15;;
73359;SDS011;63092;43.582;19.528;2024-02-14T13:24:51;11.35;;;5.63;;
73359;SDS011;63092;43.582;19.528;2024-02-14T13:27:16;11.98;;;7.05;;
73359;SDS011;63092;43.582;19.528;2024-02-14T13:29:42;8.43;;;4.38;;
73359;SDS011;63092;43.582;19.528;2024-02-14T13:32:08;5.28;;;3.25;;
73359;SDS011;63092;43.582;19.528;2024-02-14T13:34:34;6.43;;;3.83;;
73359;SDS011;63092;43.582;19.528;2024-02-14T13:37:00;7.13;;;4.20;;
73359;SDS011;63092;43.582;19.528;2024-02-14T13:39:27;7.00;;;4.00;;
73359;SDS011;63092;43.582;19.528;2024-02-14T13:41:53;8.73;;;4.03;;
73359;SDS011;63092;43.582;19.528;2024-02-14T13:44:20;6.57;;;4.10;;
73359;SDS011;63092;43.582;19.528;2024-02-14T13:46:46;9.52;;;5.82;;
73359;SDS011;63092;43.582;19.528;2024-02-14T13:49:12;15.57;;;7.95;;
73359;SDS011;63092;43.582;19.528;2024-02-14T13:54:06;6.70;;;3.47;;
73359;SDS011;63092;43.582;19.528;2024-02-14T13:56:34;6.40;;;3.42;;
73359;SDS011;63092;43.582;19.528;2024-02-14T13:59:00;8.77;;;4.57;;
73359;SDS011;63092;43.582;19.528;2024-02-14T14:01:26;9.00;;;4.35;;
73359;SDS011;63092;43.582;19.528;2024-02-14T14:03:51;7.00;;;4.38;;
73359;SDS011;63092;43.582;19.528;2024-02-14T14:06:20;7.00;;;4.13;;
73359;SDS011;63092;43.582;19.528;2024-02-14T14:08:49;7.32;;;3.50;;
73359;SDS011;63092;43.582;19.528;2024-02-14T14:11:15;5.97;;;3.75;;
73359;SDS011;63092;43.582;19.528;2024-02-14T14:13:40;6.38;;;3.97;;
73359;SDS011;63092;43.582;19.528;2024-02-14T14:16:06;7.13;;;3.88;;
73359;SDS011;63092;43.582;19.528;2024-02-14T14:18:32;8.10;;;3.38;;
73359;SDS011;63092;43.582;19.528;2024-02-14T14:20:58;7.03;;;3.50;;
73359;SDS011;63092;43.582;19.528;2024-02-14T14:23:24;8.05;;;4.85;;
73359;SDS011;63092;43.582;19.528;2024-02-14T14:25:49;9.32;;;5.03;;
73359;SDS011;63092;43.582;19.528;2024-02-14T14:28:15;10.07;;;5.80;;